Aviation Digital Data Service (ADDS)

Output produced by METARs form (1324 UTC 21 August 2019)
found at http://www.aviationweather.gov/metar/data/
 
Forecast for: OSDI (DAMASCUS (CIV/MI, SY)
Text: OSDI 211000Z 2112/2218 25015G25KT 9999 FEW030
Forecast period: 1200 UTC 21 August 2019 to 1800 UTC 22 August 2019
Forecast type: FROM: standard forecast or significant change
Winds: from the WSW (250 degrees) at 17 MPH (15 knots; 7.7 m/s)
gusting to 29 MPH (25 knots; 12.9 m/s)
Visibility: 6 or more miles 10+ km)
Ceiling: at least 12,000 feet AGL
Clouds: few clouds at 3000 feet AGL
Weather: no significant weather forecast for this period
Text: TEMPO 2120/2212 22012KT CAVOK
Forecast period: 2000 UTC 21 August 2019 to 1200 UTC 22 August 2019
Forecast type: TEMPORARY: The following changes expected for less than half the time period
Winds: from the SW (220 degrees) at 14 MPH (12 knots; 6.2 m/s)
Visibility: 6 or more miles 10+ km)
Ceiling: unknown
Clouds: missing
Weather: NSW  (no significant weather)